Time;durP1;ratioP1;P1;durP2;ratioP2;P2;SDS_P1;SDS_P2;PMS_P1;PMS_P2;Temp;Humidity;BMP_temperature;BMP_pressure;BME280_temperature;BME280_humidity;BME280_pressure;Samples;Min_cycle;Max_cycle;Signal;HPM_P1;HPM_P2
2023/10/24 00:00:34;;;;;;;7.70;3.20;;;10.40;99.90;;;;;;5066480;28;20198;-71
2023/10/24 00:03:00;;;;;;;11.83;3.40;;;10.40;99.90;;;;;;5066484;28;20213;-71
2023/10/24 00:05:27;;;;;;;4.57;2.73;;;10.30;99.90;;;;;;5073381;28;20189;-71
2023/10/24 00:07:53;;;;;;;5.43;3.60;;;10.30;99.90;;;;;;5051532;28;20214;-71
2023/10/24 00:10:19;;;;;;;6.80;3.43;;;10.30;99.90;;;;;;5063301;28;20436;-71
2023/10/24 00:12:45;;;;;;;4.47;3.40;;;10.20;99.90;;;;;;5065385;28;20450;-70
2023/10/24 00:15:10;;;;;;;6.47;3.40;;;10.20;99.90;;;;;;5045291;28;20210;-71
2023/10/24 00:17:36;;;;;;;5.73;3.80;;;10.30;99.90;;;;;;5065137;28;20265;-75
2023/10/24 00:20:02;;;;;;;8.00;3.37;;;10.20;99.90;;;;;;5063165;28;20262;-70
2023/10/24 00:22:27;;;;;;;5.93;3.00;;;10.20;99.90;;;;;;5065273;28;20658;-71
2023/10/24 00:24:53;;;;;;;6.50;3.90;;;10.20;99.90;;;;;;5050003;28;20201;-70
2023/10/24 00:27:19;;;;;;;7.57;3.80;;;10.20;99.90;;;;;;5069568;28;20217;-70
2023/10/24 00:29:44;;;;;;;7.07;3.37;;;10.20;99.90;;;;;;5064775;28;20208;-75
2023/10/24 00:32:11;;;;;;;5.93;3.80;;;10.20;99.90;;;;;;5062207;28;20292;-71
2023/10/24 00:34:37;;;;;;;7.40;3.33;;;10.20;99.90;;;;;;5063705;28;21212;-70
2023/10/24 00:37:03;;;;;;;7.63;4.07;;;10.30;99.90;;;;;;5064720;28;20440;-71
2023/10/24 00:39:28;;;;;;;7.03;3.03;;;10.30;99.90;;;;;;5063551;28;20446;-70
2023/10/24 00:41:54;;;;;;;4.60;2.80;;;10.30;99.90;;;;;;5062901;28;20220;-71
2023/10/24 00:44:19;;;;;;;6.40;3.30;;;10.30;99.90;;;;;;5061986;28;20228;-71
2023/10/24 00:46:46;;;;;;;4.00;2.50;;;10.20;99.90;;;;;;5061709;28;20189;-71
2023/10/24 00:49:11;;;;;;;7.30;3.30;;;10.30;99.90;;;;;;5062577;28;20189;-71
2023/10/24 00:51:38;;;;;;;5.00;2.90;;;10.30;99.90;;;;;;5062346;28;20459;-72
2023/10/24 00:54:04;;;;;;;6.07;2.97;;;10.30;99.90;;;;;;5062788;28;21490;-71
2023/10/24 00:56:30;;;;;;;10.90;3.60;;;10.30;99.90;;;;;;5061509;28;20442;-71
2023/10/24 00:58:58;;;;;;;4.70;2.83;;;10.30;99.90;;;;;;5045876;28;20438;-72
2023/10/24 01:01:24;;;;;;;10.43;3.33;;;10.30;99.90;;;;;;5059439;28;20484;-73
2023/10/24 01:03:49;;;;;;;8.53;4.87;;;10.40;99.90;;;;;;5060777;28;20499;-72
2023/10/24 01:06:18;;;;;;;4.67;3.10;;;10.40;99.90;;;;;;5061757;28;20511;-71
2023/10/24 01:08:44;;;;;;;4.97;3.00;;;10.40;99.90;;;;;;5061242;28;20678;-71
2023/10/24 01:11:11;;;;;;;14.83;3.13;;;10.30;99.90;;;;;;5062653;28;20538;-72
2023/10/24 01:13:37;;;;;;;6.60;3.70;;;10.30;99.90;;;;;;5061119;28;20183;-72
2023/10/24 01:16:03;;;;;;;5.53;2.57;;;10.30;99.90;;;;;;5061416;28;20493;-71
2023/10/24 01:18:28;;;;;;;8.20;3.37;;;10.40;99.90;;;;;;5059953;28;20439;-71
2023/10/24 01:20:54;;;;;;;9.13;3.40;;;10.40;99.90;;;;;;5044951;28;20784;-72
2023/10/24 01:23:20;;;;;;;9.37;3.30;;;10.40;99.90;;;;;;5062624;28;20760;-71
2023/10/24 01:25:48;;;;;;;5.77;3.37;;;10.50;99.90;;;;;;5062812;28;20192;-71
2023/10/24 01:28:14;;;;;;;9.57;3.27;;;10.50;99.90;;;;;;5060934;28;20675;-71
2023/10/24 01:30:40;;;;;;;8.90;3.17;;;10.50;99.90;;;;;;5062392;28;20432;-74
2023/10/24 01:33:05;;;;;;;7.10;3.90;;;10.40;99.90;;;;;;5058128;28;20451;-69
2023/10/24 01:35:31;;;;;;;5.93;3.37;;;10.40;99.90;;;;;;5055157;28;20193;-71
2023/10/24 01:37:57;;;;;;;9.67;4.00;;;10.40;99.90;;;;;;5056455;28;21320;-69
2023/10/24 01:40:22;;;;;;;5.27;3.00;;;10.40;99.90;;;;;;5056756;28;20661;-74
2023/10/24 01:42:48;;;;;;;5.00;2.80;;;10.30;99.90;;;;;;5055333;28;20224;-68
2023/10/24 01:45:15;;;;;;;5.00;3.10;;;10.40;99.90;;;;;;5053600;28;20176;-71
2023/10/24 01:47:41;;;;;;;8.03;3.37;;;10.30;99.90;;;;;;5054401;28;20181;-72
2023/10/24 01:50:07;;;;;;;3.63;2.70;;;10.30;99.90;;;;;;5055382;28;20424;-70
2023/10/24 01:52:33;;;;;;;8.23;3.17;;;10.30;99.90;;;;;;5052183;28;20879;-70
2023/10/24 01:54:59;;;;;;;6.10;3.93;;;10.30;99.90;;;;;;5054068;28;20945;-73
2023/10/24 01:57:24;;;;;;;7.70;3.87;;;10.30;99.90;;;;;;5052395;28;20192;-65
2023/10/24 01:59:50;;;;;;;12.00;3.80;;;10.30;99.90;;;;;;5054235;28;20194;-73
2023/10/24 02:02:15;;;;;;;6.00;3.40;;;10.30;99.90;;;;;;5055464;28;21183;-70
2023/10/24 02:04:41;;;;;;;5.10;3.00;;;10.20;99.90;;;;;;5064118;28;20213;-70
2023/10/24 02:07:07;;;;;;;4.97;3.00;;;10.30;99.90;;;;;;5072622;28;20196;-78
2023/10/24 02:09:33;;;;;;;10.30;3.53;;;10.40;99.90;;;;;;5086819;28;20423;-77
2023/10/24 02:12:00;;;;;;;6.23;3.27;;;10.30;99.90;;;;;;5086157;28;20196;-78
2023/10/24 02:14:27;;;;;;;5.10;3.00;;;10.40;99.90;;;;;;5091391;28;20217;-72
2023/10/24 02:16:52;;;;;;;8.63;3.63;;;10.30;99.90;;;;;;5073770;28;20542;-71
2023/10/24 02:19:18;;;;;;;7.10;2.93;;;10.30;99.90;;;;;;5046157;28;21576;-71
2023/10/24 02:21:43;;;;;;;4.20;2.70;;;10.30;99.90;;;;;;5059944;28;20895;-71
2023/10/24 02:24:09;;;;;;;5.13;3.23;;;10.40;99.90;;;;;;5062485;28;20208;-70
2023/10/24 02:26:35;;;;;;;4.53;2.60;;;10.40;99.90;;;;;;5062426;28;20182;-70
2023/10/24 02:29:00;;;;;;;5.83;3.07;;;10.40;99.90;;;;;;5062418;28;20176;-72
2023/10/24 02:31:26;;;;;;;3.60;2.43;;;10.50;99.90;;;;;;5061755;28;20292;-71
2023/10/24 02:33:52;;;;;;;12.23;3.70;;;10.50;99.90;;;;;;5061404;28;20222;-70
2023/10/24 02:36:17;;;;;;;6.60;2.93;;;10.50;99.90;;;;;;5063086;28;20504;-74
2023/10/24 02:38:43;;;;;;;9.60;3.23;;;10.50;99.90;;;;;;5060225;28;20721;-70
2023/10/24 02:41:09;;;;;;;4.27;2.53;;;10.50;99.90;;;;;;5060069;28;20224;-70
2023/10/24 02:43:34;;;;;;;5.07;2.57;;;10.50;99.90;;;;;;5069355;28;20311;-70
2023/10/24 02:46:05;;;;;;;3.37;2.10;;;10.60;99.90;;;;;;5081579;28;20249;-69
2023/10/24 02:48:31;;;;;;;3.07;2.23;;;10.70;99.90;;;;;;5083052;28;20280;-71
2023/10/24 02:50:57;;;;;;;5.27;2.47;;;10.80;99.90;;;;;;5081278;28;20455;-70
2023/10/24 02:53:23;;;;;;;3.83;2.10;;;10.80;99.90;;;;;;5079150;28;20511;-69
2023/10/24 02:55:49;;;;;;;9.93;2.93;;;10.80;99.90;;;;;;5081921;28;20445;-72
2023/10/24 02:58:15;;;;;;;12.77;2.80;;;10.70;99.90;;;;;;5079431;28;20906;-71
2023/10/24 03:00:41;;;;;;;3.40;2.27;;;10.80;99.90;;;;;;5079082;28;20953;-70
2023/10/24 03:03:07;;;;;;;3.83;2.13;;;10.80;99.90;;;;;;5081644;28;20999;-70
2023/10/24 03:05:33;;;;;;;4.80;1.80;;;10.80;99.90;;;;;;5080874;28;20193;-72
2023/10/24 03:07:59;;;;;;;1.70;1.27;;;10.80;99.90;;;;;;5081099;28;20177;-70
2023/10/24 03:10:25;;;;;;;6.67;2.33;;;10.80;99.90;;;;;;5079206;28;20620;-73
2023/10/24 03:12:52;;;;;;;4.17;2.50;;;10.90;99.90;;;;;;5060099;28;20544;-72
2023/10/24 03:15:18;;;;;;;10.20;2.07;;;11.00;99.90;;;;;;5079904;28;20449;-70
2023/10/24 03:17:43;;;;;;;3.80;1.87;;;11.00;99.90;;;;;;5080033;28;20439;-71
2023/10/24 03:20:09;;;;;;;5.20;1.70;;;11.00;99.90;;;;;;5079380;28;20628;-73
2023/10/24 03:22:35;;;;;;;4.63;1.80;;;10.90;99.90;;;;;;5077819;28;20208;-73
2023/10/24 03:25:01;;;;;;;4.97;2.07;;;10.90;99.90;;;;;;5080034;28;20269;-70
2023/10/24 03:27:26;;;;;;;14.90;2.40;;;11.00;99.90;;;;;;5081205;28;20181;-71
2023/10/24 03:29:52;;;;;;;3.80;1.80;;;11.00;99.90;;;;;;5079335;28;20188;-70
2023/10/24 03:32:18;;;;;;;2.73;1.50;;;10.90;99.90;;;;;;5079029;28;20207;-71
2023/10/24 03:34:43;;;;;;;4.43;1.90;;;10.90;99.90;;;;;;5069134;28;20665;-73
2023/10/24 03:37:09;;;;;;;2.83;1.80;;;10.90;99.90;;;;;;5072614;28;20230;-71
2023/10/24 03:39:34;;;;;;;4.93;2.13;;;10.80;99.90;;;;;;5069886;28;20195;-70
2023/10/24 03:42:00;;;;;;;6.77;3.10;;;10.80;99.90;;;;;;5066378;28;20208;-70
2023/10/24 03:44:26;;;;;;;7.10;3.97;;;10.90;99.90;;;;;;5064095;28;20235;-71
2023/10/24 03:46:51;;;;;;;4.60;2.90;;;10.90;99.90;;;;;;5065215;28;20199;-71
2023/10/24 03:49:17;;;;;;;5.10;2.93;;;10.80;99.90;;;;;;5065358;28;20196;-73
2023/10/24 03:51:43;;;;;;;4.80;2.20;;;10.90;99.90;;;;;;5066613;28;20683;-71
2023/10/24 03:54:08;;;;;;;4.23;2.67;;;10.90;99.90;;;;;;5057268;28;20544;-70
2023/10/24 03:56:35;;;;;;;4.23;1.73;;;10.80;99.90;;;;;;5057318;28;20499;-69
2023/10/24 03:59:01;;;;;;;6.50;2.13;;;10.80;99.90;;;;;;5030424;28;20203;-70
2023/10/24 04:01:26;;;;;;;3.40;1.60;;;10.70;99.90;;;;;;5054577;28;21832;-71
2023/10/24 04:03:52;;;;;;;3.20;1.70;;;10.10;99.90;;;;;;5059773;28;20303;-71
2023/10/24 04:06:18;;;;;;;4.23;2.07;;;10.60;99.90;;;;;;5065599;28;20645;-74
2023/10/24 04:08:44;;;;;;;2.70;1.70;;;10.60;99.90;;;;;;5065323;28;20184;-69
2023/10/24 04:11:16;;;;;;;6.30;1.90;;;10.70;99.90;;;;;;5068784;28;20200;-67
2023/10/24 04:13:43;;;;;;;13.53;1.73;;;10.80;99.90;;;;;;5069851;28;21012;-70
2023/10/24 04:16:08;;;;;;;2.13;1.33;;;10.80;99.90;;;;;;5074584;28;20862;-71
2023/10/24 04:18:34;;;;;;;4.70;1.80;;;10.80;99.90;;;;;;5073416;28;20449;-71
2023/10/24 04:21:00;;;;;;;6.33;1.97;;;10.80;99.90;;;;;;5074469;28;20649;-72
2023/10/24 04:23:25;;;;;;;4.17;2.50;;;10.70;99.90;;;;;;5076483;28;20261;-69
2023/10/24 04:25:51;;;;;;;2.43;1.00;;;10.70;99.90;;;;;;5080109;28;20201;-74
2023/10/24 04:28:16;;;;;;;4.07;1.90;;;10.70;99.90;;;;;;5080090;28;20189;-70
2023/10/24 04:30:42;;;;;;;5.13;1.80;;;10.70;99.90;;;;;;5066429;28;20586;-72
2023/10/24 04:33:08;;;;;;;3.63;1.67;;;10.70;99.90;;;;;;5083485;28;20907;-71
2023/10/24 04:35:47;;;;;;;4.93;2.30;;;10.70;99.90;;;;;;5081120;28;20185;-71
2023/10/24 04:38:13;;;;;;;2.73;1.57;;;10.70;99.90;;;;;;5082318;28;20438;-71
2023/10/24 04:40:39;;;;;;;2.67;1.67;;;10.60;99.90;;;;;;5065512;28;20438;-72
2023/10/24 04:43:05;;;;;;;4.33;1.90;;;10.60;99.90;;;;;;5081565;28;21055;-70
2023/10/24 04:45:31;;;;;;;3.37;1.43;;;10.60;99.90;;;;;;5074495;28;20176;-70
2023/10/24 04:47:58;;;;;;;2.57;1.37;;;10.60;99.90;;;;;;5073553;28;21056;-71
2023/10/24 04:50:24;;;;;;;2.47;1.30;;;10.60;99.90;;;;;;5081034;28;20427;-70
2023/10/24 04:52:50;;;;;;;5.10;1.67;;;10.60;99.90;;;;;;5071905;28;20870;-70
2023/10/24 04:55:16;;;;;;;5.23;1.90;;;10.50;99.90;;;;;;5077534;28;20474;-71
2023/10/24 04:57:42;;;;;;;3.27;1.53;;;10.50;99.90;;;;;;5051641;28;20173;-72
2023/10/24 05:00:12;;;;;;;3.80;1.90;;;10.50;99.90;;;;;;5073101;28;20442;-71
2023/10/24 05:02:43;;;;;;;6.93;1.50;;;10.60;99.90;;;;;;5068896;28;20561;-70
2023/10/24 05:05:09;;;;;;;4.40;1.80;;;10.60;99.90;;;;;;5057394;28;20508;-72
2023/10/24 05:07:36;;;;;;;3.00;1.70;;;10.60;99.90;;;;;;5076331;28;20429;-70
2023/10/24 05:10:03;;;;;;;2.27;1.70;;;10.70;99.90;;;;;;5076927;28;20499;-71
2023/10/24 05:12:28;;;;;;;6.53;2.30;;;10.60;99.90;;;;;;5066817;28;20489;-72
2023/10/24 05:14:54;;;;;;;4.37;2.20;;;10.60;99.90;;;;;;5074519;28;20430;-73
2023/10/24 05:17:19;;;;;;;4.63;2.77;;;10.60;99.90;;;;;;5080905;28;20560;-73
2023/10/24 05:19:45;;;;;;;4.43;1.90;;;10.60;99.90;;;;;;5071296;28;20189;-70
2023/10/24 05:22:11;;;;;;;8.30;1.63;;;10.50;99.90;;;;;;5078736;28;20200;-72
2023/10/24 05:24:38;;;;;;;9.03;1.73;;;10.60;99.90;;;;;;5075856;28;20203;-70
2023/10/24 05:27:04;;;;;;;3.53;1.30;;;10.60;99.90;;;;;;5075064;28;20188;-70
2023/10/24 05:29:34;;;;;;;2.67;1.77;;;10.60;99.90;;;;;;5070445;28;20427;-70
2023/10/24 05:32:00;;;;;;;3.10;2.23;;;10.70;99.90;;;;;;5070243;28;20450;-70
2023/10/24 05:34:29;;;;;;;3.63;1.93;;;10.60;99.90;;;;;;5077260;28;20433;-72
2023/10/24 05:36:55;;;;;;;2.27;1.43;;;10.60;99.90;;;;;;5061224;28;20193;-73
2023/10/24 05:39:21;;;;;;;3.50;1.57;;;10.60;99.90;;;;;;5060163;28;20855;-70
2023/10/24 05:41:47;;;;;;;3.13;1.53;;;10.60;99.90;;;;;;5048547;28;20445;-68
2023/10/24 05:44:14;;;;;;;2.53;1.77;;;10.60;99.90;;;;;;5053730;28;20232;-71
2023/10/24 05:46:40;;;;;;;2.23;1.57;;;10.60;99.90;;;;;;5027144;28;20431;-69
2023/10/24 05:49:05;;;;;;;2.30;1.40;;;10.50;99.90;;;;;;5046271;28;20427;-70
2023/10/24 05:51:31;;;;;;;2.97;1.77;;;10.60;99.90;;;;;;5029359;28;20201;-71
2023/10/24 05:53:57;;;;;;;2.57;1.37;;;10.60;99.90;;;;;;5044418;28;20188;-70
2023/10/24 05:56:23;;;;;;;3.47;1.80;;;10.60;99.90;;;;;;5046026;28;20697;-66
2023/10/24 05:58:49;;;;;;;6.60;1.57;;;10.60;99.90;;;;;;5049165;28;21461;-74
2023/10/24 06:01:15;;;;;;;4.10;2.23;;;10.60;99.90;;;;;;5050989;28;20521;-73
2023/10/24 06:03:40;;;;;;;3.73;2.37;;;10.60;99.90;;;;;;5051923;28;20213;-72
2023/10/24 06:06:07;;;;;;;9.43;4.23;;;10.60;99.90;;;;;;5056197;28;20181;-72
2023/10/24 06:08:33;;;;;;;7.97;2.43;;;10.60;99.90;;;;;;5066453;28;20568;-71
2023/10/24 06:11:00;;;;;;;4.53;2.60;;;10.60;99.90;;;;;;5060748;28;20447;-72
2023/10/24 06:13:26;;;;;;;5.03;2.70;;;10.60;99.90;;;;;;5043971;28;20837;-73
2023/10/24 06:15:52;;;;;;;10.33;2.33;;;10.70;99.90;;;;;;5055706;28;20440;-71
2023/10/24 06:18:18;;;;;;;4.27;2.00;;;10.60;99.90;;;;;;5062355;28;20435;-72
2023/10/24 06:20:44;;;;;;;3.13;1.53;;;10.70;99.90;;;;;;5059292;28;20678;-74
2023/10/24 06:23:10;;;;;;;3.67;1.97;;;10.70;99.90;;;;;;5059118;28;20437;-71
2023/10/24 06:25:41;;;;;;;1.90;1.30;;;10.70;99.90;;;;;;5061120;28;20396;-73
2023/10/24 06:28:07;;;;;;;3.53;2.10;;;10.70;99.90;;;;;;5062941;28;20514;-71
2023/10/24 06:30:34;;;;;;;5.17;1.83;;;10.70;99.90;;;;;;5063157;28;20477;-70
2023/10/24 06:33:00;;;;;;;6.37;2.73;;;10.70;99.90;;;;;;5059933;28;20950;-72
2023/10/24 06:35:26;;;;;;;2.70;1.50;;;10.80;99.90;;;;;;5062697;28;20431;-71
2023/10/24 06:37:52;;;;;;;8.07;2.10;;;10.80;99.90;;;;;;5066238;28;20422;-70
2023/10/24 06:40:17;;;;;;;3.40;1.83;;;10.80;99.90;;;;;;5064697;28;20578;-71
2023/10/24 06:42:44;;;;;;;6.87;3.20;;;10.90;99.90;;;;;;5062282;28;20745;-73
2023/10/24 06:45:11;;;;;;;7.23;4.33;;;10.90;99.90;;;;;;5065862;28;20259;-71
2023/10/24 06:47:37;;;;;;;8.33;3.20;;;10.90;99.90;;;;;;5063317;28;20475;-71
2023/10/24 06:50:04;;;;;;;4.30;2.20;;;10.90;99.90;;;;;;5048151;28;20430;-72
2023/10/24 06:52:33;;;;;;;6.27;3.10;;;10.90;99.90;;;;;;5061271;28;20535;-71
2023/10/24 06:54:59;;;;;;;7.63;2.70;;;10.90;99.90;;;;;;5066469;28;20955;-71
2023/10/24 06:57:25;;;;;;;6.63;3.20;;;10.80;99.90;;;;;;5082102;28;20423;-78
2023/10/24 06:59:51;;;;;;;7.50;2.80;;;10.80;99.90;;;;;;5091671;28;20186;-80
2023/10/24 07:02:19;;;;;;;6.20;2.93;;;10.80;99.90;;;;;;5093792;28;20206;-78
2023/10/24 07:04:45;;;;;;;4.20;2.40;;;10.80;99.90;;;;;;5087666;28;20204;-78
2023/10/24 07:07:11;;;;;;;10.10;3.20;;;10.80;99.90;;;;;;5073331;28;22018;-71
2023/10/24 07:09:36;;;;;;;5.27;2.80;;;10.90;99.90;;;;;;5047536;28;20177;-73
2023/10/24 07:12:02;;;;;;;5.40;2.90;;;10.70;99.90;;;;;;5039982;28;22423;-73
2023/10/24 07:14:28;;;;;;;9.80;3.30;;;10.80;99.90;;;;;;5041709;28;20192;-73
2023/10/24 07:16:53;;;;;;;5.93;3.00;;;10.80;99.90;;;;;;5040815;28;20188;-73
2023/10/24 07:19:20;;;;;;;4.23;2.57;;;10.80;99.90;;;;;;5014858;28;20182;-70
2023/10/24 07:21:46;;;;;;;5.10;3.03;;;11.40;99.90;;;;;;5035699;28;20206;-72
2023/10/24 07:24:11;;;;;;;7.77;3.17;;;10.90;99.90;;;;;;5031370;28;20467;-70
2023/10/24 07:26:37;;;;;;;13.23;3.07;;;10.70;99.90;;;;;;5027686;28;20476;-67
2023/10/24 07:29:03;;;;;;;3.73;2.60;;;10.80;99.90;;;;;;5031952;28;20681;-65
2023/10/24 07:31:28;;;;;;;3.83;2.30;;;10.80;99.90;;;;;;5027604;28;20705;-69
2023/10/24 07:33:54;;;;;;;7.30;2.67;;;10.80;99.90;;;;;;5029676;28;20220;-71
2023/10/24 07:36:20;;;;;;;5.77;2.20;;;10.80;99.90;;;;;;5028990;28;20676;-70
2023/10/24 07:38:45;;;;;;;9.90;4.17;;;10.90;99.90;;;;;;5052161;28;20326;-70
2023/10/24 07:41:11;;;;;;;9.07;4.70;;;10.80;99.90;;;;;;5072183;28;20854;-70
2023/10/24 07:43:37;;;;;;;5.03;2.83;;;10.80;99.90;;;;;;5069899;28;20273;-71
2023/10/24 07:46:03;;;;;;;10.37;4.23;;;10.90;99.90;;;;;;5065541;28;20180;-69
2023/10/24 07:48:29;;;;;;;4.60;3.20;;;10.90;99.90;;;;;;5041603;28;21996;-74
2023/10/24 07:50:57;;;;;;;12.87;2.83;;;11.00;99.90;;;;;;5040169;28;20515;-71
2023/10/24 07:53:23;;;;;;;4.67;2.77;;;11.00;99.90;;;;;;5045343;28;20191;-71
2023/10/24 07:55:49;;;;;;;3.37;1.63;;;11.10;99.90;;;;;;5040225;28;21121;-71
2023/10/24 07:58:18;;;;;;;3.40;1.97;;;11.10;99.90;;;;;;5041614;28;20455;-66
2023/10/24 08:00:45;;;;;;;5.83;1.97;;;11.10;99.90;;;;;;5041848;28;20423;-70
2023/10/24 08:03:15;;;;;;;7.10;2.27;;;11.10;99.90;;;;;;5042977;28;20446;-72
2023/10/24 08:05:41;;;;;;;5.93;1.13;;;11.20;99.90;;;;;;5049608;28;20428;-73
2023/10/24 08:08:06;;;;;;;8.73;1.30;;;11.30;99.90;;;;;;5047794;28;20422;-71
2023/10/24 08:10:33;;;;;;;2.43;1.13;;;11.30;99.90;;;;;;5046636;28;20951;-71
2023/10/24 08:13:02;;;;;;;2.67;1.20;;;11.40;99.90;;;;;;5047070;28;20195;-73
2023/10/24 08:15:28;;;;;;;1.73;1.10;;;11.60;99.90;;;;;;5045930;28;20435;-72
2023/10/24 08:17:54;;;;;;;8.70;1.53;;;11.50;99.90;;;;;;5062375;28;20431;-71
2023/10/24 08:20:20;;;;;;;4.93;1.43;;;11.60;99.90;;;;;;5060893;28;20424;-70
2023/10/24 08:22:46;;;;;;;4.47;0.80;;;11.60;99.90;;;;;;5062099;28;21398;-69
2023/10/24 08:25:12;;;;;;;2.63;1.00;;;11.70;99.90;;;;;;5060883;28;21004;-69
2023/10/24 08:27:38;;;;;;;2.40;1.27;;;11.70;99.90;;;;;;5062794;28;20431;-73
2023/10/24 08:30:04;;;;;;;2.50;1.13;;;11.70;99.90;;;;;;5061221;28;20435;-70
2023/10/24 08:32:30;;;;;;;1.77;1.03;;;11.70;99.90;;;;;;5061824;28;20737;-70
2023/10/24 08:34:56;;;;;;;1.23;0.80;;;11.70;99.90;;;;;;5063471;28;20511;-72
2023/10/24 08:37:22;;;;;;;1.20;0.57;;;11.80;99.90;;;;;;5062368;28;20250;-72
2023/10/24 08:39:48;;;;;;;2.03;1.10;;;11.70;99.90;;;;;;5061997;28;20231;-74
2023/10/24 08:42:15;;;;;;;13.40;1.47;;;11.70;99.90;;;;;;5057532;28;20806;-72
2023/10/24 08:44:41;;;;;;;2.87;1.13;;;11.70;99.90;;;;;;5070792;28;20475;-72
2023/10/24 08:47:09;;;;;;;1.83;1.20;;;11.70;99.90;;;;;;5071841;28;20511;-72
2023/10/24 08:49:38;;;;;;;3.00;1.63;;;11.70;99.90;;;;;;5071132;28;20427;-73
2023/10/24 08:52:05;;;;;;;2.27;0.80;;;11.70;99.90;;;;;;5070865;28;20500;-68
2023/10/24 08:54:31;;;;;;;4.13;1.50;;;11.70;99.90;;;;;;5041800;28;20446;-70
2023/10/24 08:56:59;;;;;;;1.53;0.80;;;11.70;99.90;;;;;;5060430;28;20427;-74
2023/10/24 08:59:28;;;;;;;4.67;0.77;;;11.70;99.90;;;;;;5060906;28;20440;-75
2023/10/24 09:01:54;;;;;;;1.30;0.80;;;11.70;99.90;;;;;;5060606;28;21534;-72
2023/10/24 09:04:20;;;;;;;5.10;1.07;;;11.70;99.90;;;;;;5061320;28;20524;-73
2023/10/24 09:06:46;;;;;;;2.37;0.83;;;11.70;99.90;;;;;;5061480;28;20238;-73
2023/10/24 09:09:13;;;;;;;1.30;0.70;;;11.70;99.90;;;;;;5040854;28;20280;-72
2023/10/24 09:11:59;;;;;;;4.03;1.03;;;11.80;99.90;;;;;;5056698;28;20451;-73
2023/10/24 09:14:27;;;;;;;2.00;1.00;;;11.80;99.90;;;;;;5055651;28;20940;-76
2023/10/24 09:17:03;;;;;;;2.63;1.27;;;11.90;99.90;;;;;;5040226;28;20433;-74
2023/10/24 09:19:29;;;;;;;1.90;1.13;;;11.90;99.90;;;;;;5057780;28;20607;-74
2023/10/24 09:22:02;;;;;;;4.70;1.10;;;11.90;99.90;;;;;;5055719;28;20462;-75
2023/10/24 09:24:27;;;;;;;4.70;2.13;;;11.80;99.90;;;;;;5057287;28;20463;-76
2023/10/24 09:26:55;;;;;;;2.03;1.10;;;11.90;99.90;;;;;;5056237;28;20492;-73
2023/10/24 09:29:21;;;;;;;5.83;1.00;;;11.90;99.90;;;;;;5055346;28;20185;-72
2023/10/24 09:31:48;;;;;;;1.70;0.87;;;12.00;99.90;;;;;;5030703;28;20463;-69
2023/10/24 09:34:15;;;;;;;3.57;0.93;;;11.90;99.90;;;;;;5056064;28;21364;-73
2023/10/24 09:36:41;;;;;;;3.97;1.07;;;11.90;99.90;;;;;;5053225;28;20443;-71
2023/10/24 09:39:10;;;;;;;11.33;1.20;;;12.00;99.90;;;;;;5053259;28;20454;-72
2023/10/24 09:41:37;;;;;;;1.77;1.00;;;11.90;99.90;;;;;;5054875;28;20575;-73
2023/10/24 09:44:03;;;;;;;1.97;1.00;;;12.00;99.90;;;;;;5071336;28;20486;-72
2023/10/24 09:46:30;;;;;;;1.93;1.03;;;12.00;99.90;;;;;;5081523;28;20959;-72
2023/10/24 09:48:58;;;;;;;3.63;1.43;;;12.00;99.90;;;;;;5081970;28;20192;-74
2023/10/24 09:51:24;;;;;;;2.17;1.13;;;11.90;99.90;;;;;;5083615;28;20970;-75
2023/10/24 09:53:51;;;;;;;2.43;1.20;;;11.90;99.90;;;;;;5085195;28;20430;-73
2023/10/24 09:56:17;;;;;;;2.00;1.00;;;11.90;99.90;;;;;;5082341;28;20465;-75
2023/10/24 09:58:43;;;;;;;2.70;0.83;;;11.90;99.90;;;;;;5081481;28;20442;-72
2023/10/24 10:01:12;;;;;;;2.50;1.10;;;11.90;99.90;;;;;;5083787;28;20967;-72
2023/10/24 10:03:38;;;;;;;2.17;1.00;;;11.90;99.90;;;;;;5084045;28;20758;-71
2023/10/24 10:06:11;;;;;;;2.27;1.57;;;11.90;99.90;;;;;;5087410;28;20903;-72
2023/10/24 10:08:39;;;;;;;6.20;1.37;;;11.90;99.90;;;;;;5083022;28;20445;-72
2023/10/24 10:11:06;;;;;;;2.10;1.00;;;11.90;99.90;;;;;;5081489;28;20458;-73
2023/10/24 10:13:42;;;;;;;6.83;1.00;;;12.00;99.90;;;;;;5057790;28;21496;-72
2023/10/24 10:16:14;;;;;;;2.17;1.43;;;11.90;99.90;;;;;;5082142;28;20611;-72
2023/10/24 10:18:59;;;;;;;2.27;1.30;;;11.90;99.90;;;;;;5082617;28;20430;-73
2023/10/24 10:21:48;;;;;;;3.80;1.50;;;11.90;99.90;;;;;;5062685;28;21005;-73
2023/10/24 10:24:41;;;;;;;6.27;1.70;;;11.90;99.90;;;;;;5080645;28;20462;-73
2023/10/24 10:27:36;;;;;;;4.00;1.80;;;11.90;99.90;;;;;;5082103;28;20491;-73
2023/10/24 10:30:19;;;;;;;2.23;1.23;;;11.90;99.90;;;;;;5079573;28;20931;-76
2023/10/24 10:32:53;;;;;;;3.93;1.93;;;11.90;99.90;;;;;;5070260;28;20473;-75
2023/10/24 10:35:20;;;;;;;5.00;2.20;;;11.90;99.90;;;;;;5070591;28;20526;-73
2023/10/24 10:38:12;;;;;;;3.60;1.97;;;11.90;99.90;;;;;;5070575;28;20435;-71
2023/10/24 10:40:38;;;;;;;2.07;1.27;;;11.90;99.90;;;;;;5068929;28;20443;-72
2023/10/24 10:43:04;;;;;;;5.40;1.93;;;11.80;99.90;;;;;;5071727;28;20459;-69
2023/10/24 10:45:31;;;;;;;2.23;1.40;;;11.90;99.90;;;;;;5057984;28;20472;-73
2023/10/24 10:48:04;;;;;;;10.17;1.63;;;11.90;99.90;;;;;;5071975;28;20233;-71
2023/10/24 10:50:32;;;;;;;2.30;1.40;;;11.80;99.90;;;;;;5063471;28;20472;-73
2023/10/24 10:53:31;;;;;;;2.20;1.33;;;11.90;99.90;;;;;;5067145;28;20475;-70
2023/10/24 10:56:17;;;;;;;6.40;1.40;;;11.90;99.90;;;;;;5073395;28;20445;-71
2023/10/24 10:58:43;;;;;;;4.33;1.23;;;11.90;99.90;;;;;;5075397;28;20476;-74
2023/10/24 11:01:33;;;;;;;2.23;1.30;;;11.90;99.90;;;;;;5072736;28;20458;-71
2023/10/24 11:03:59;;;;;;;6.20;1.10;;;11.90;99.90;;;;;;5084527;28;20204;-73
2023/10/24 11:06:27;;;;;;;3.93;1.30;;;11.90;99.90;;;;;;5087576;28;20435;-72
2023/10/24 11:09:09;;;;;;;2.80;1.40;;;11.90;99.90;;;;;;5087315;28;20435;-73
2023/10/24 11:11:37;;;;;;;2.90;1.50;;;11.90;99.90;;;;;;5093898;28;20476;-70
2023/10/24 11:14:21;;;;;;;2.53;1.40;;;11.90;99.90;;;;;;5091996;28;20442;-70
2023/10/24 11:16:49;;;;;;;3.00;1.60;;;11.80;99.90;;;;;;5076317;28;20458;-70
2023/10/24 11:19:20;;;;;;;2.53;1.30;;;11.90;99.90;;;;;;5081317;28;20438;-71
2023/10/24 11:21:51;;;;;;;2.20;1.20;;;11.90;99.90;;;;;;5084120;28;20454;-71
2023/10/24 11:24:22;;;;;;;3.00;2.10;;;11.90;99.90;;;;;;5075413;28;20453;-71
2023/10/24 11:26:54;;;;;;;3.63;1.83;;;11.90;99.90;;;;;;5079205;28;20437;-71
2023/10/24 11:29:20;;;;;;;2.73;1.07;;;11.90;99.90;;;;;;5081973;28;20425;-70
2023/10/24 11:31:45;;;;;;;2.80;1.97;;;11.90;99.90;;;;;;5082104;28;20455;-72
2023/10/24 11:34:15;;;;;;;2.33;1.43;;;11.90;99.90;;;;;;5084959;28;20241;-70
2023/10/24 11:37:01;;;;;;;2.73;1.77;;;11.90;99.90;;;;;;5094176;28;20181;-71
2023/10/24 11:39:27;;;;;;;3.80;1.93;;;11.90;99.90;;;;;;5082953;28;21035;-75
2023/10/24 11:41:52;;;;;;;2.73;1.40;;;11.90;99.90;;;;;;5078001;28;20466;-71
2023/10/24 11:44:18;;;;;;;3.40;2.13;;;12.00;99.90;;;;;;5077299;28;20236;-71
2023/10/24 11:46:44;;;;;;;7.33;2.20;;;12.00;99.90;;;;;;5079413;28;20250;-75
2023/10/24 11:49:11;;;;;;;4.43;2.20;;;11.90;99.90;;;;;;5091881;28;20233;-81
2023/10/24 11:51:37;;;;;;;7.17;3.30;;;12.00;99.90;;;;;;5093129;28;20434;-79
2023/10/24 11:54:07;;;;;;;5.97;2.60;;;12.00;99.90;;;;;;5093047;28;20435;-81
2023/10/24 11:56:33;;;;;;;5.20;2.80;;;11.90;99.90;;;;;;5093228;28;20403;-72
2023/10/24 11:59:01;;;;;;;6.30;3.00;;;12.00;99.90;;;;;;5078293;28;20416;-73
2023/10/24 12:01:31;;;;;;;11.63;3.93;;;11.90;99.90;;;;;;5065750;28;20523;-75
2023/10/24 12:03:58;;;;;;;3.40;1.67;;;11.90;99.90;;;;;;5069746;28;20516;-71
2023/10/24 12:06:28;;;;;;;4.67;1.87;;;11.90;99.90;;;;;;5069484;28;20428;-69
2023/10/24 12:08:54;;;;;;;2.30;1.40;;;11.90;99.90;;;;;;5066909;28;20821;-72
2023/10/24 12:11:23;;;;;;;2.13;1.30;;;11.90;99.90;;;;;;5069575;28;20451;-71
2023/10/24 12:13:50;;;;;;;3.40;1.70;;;12.00;99.90;;;;;;5069984;28;20200;-70
2023/10/24 12:16:15;;;;;;;2.57;1.50;;;12.00;99.90;;;;;;5070972;28;20425;-70
2023/10/24 12:18:41;;;;;;;1.60;1.13;;;12.00;99.90;;;;;;5066973;28;20864;-70
2023/10/24 12:21:14;;;;;;;3.00;1.53;;;12.00;99.90;;;;;;5070263;28;20208;-71
2023/10/24 12:23:39;;;;;;;5.03;1.30;;;12.00;99.90;;;;;;5071140;28;20708;-70
2023/10/24 12:26:05;;;;;;;4.13;1.70;;;12.00;99.90;;;;;;5071292;28;20498;-74
2023/10/24 12:28:36;;;;;;;2.27;1.50;;;12.00;99.90;;;;;;5072935;28;20229;-71
2023/10/24 12:31:03;;;;;;;1.90;1.20;;;12.00;99.90;;;;;;5069812;28;20545;-72
2023/10/24 12:33:29;;;;;;;2.20;1.20;;;12.00;99.90;;;;;;5048825;28;20871;-70
2023/10/24 12:35:57;;;;;;;1.73;1.00;;;12.10;99.90;;;;;;5050472;28;20496;-73
2023/10/24 12:38:23;;;;;;;5.93;1.50;;;12.10;99.90;;;;;;5066475;28;20657;-71
2023/10/24 12:40:48;;;;;;;3.57;1.53;;;12.00;99.90;;;;;;5066701;28;20538;-70
2023/10/24 12:43:14;;;;;;;4.00;1.97;;;12.10;99.90;;;;;;5066763;28;20212;-71
2023/10/24 12:45:40;;;;;;;2.53;1.60;;;12.10;99.90;;;;;;5066932;28;20192;-70